<?xml version="1.0" encoding="UTF-8" standalone="no" ?>
<gpx xmlns="http://www.topografix.com/GPX/1/1" xmlns:xsi="http://www.w3.org/2001/XMLSchema-instance" xsi:schemaLocation="http://www.topografix.com/GPX/1/1 http://www.topografix.com/GPX/1/1/gpx.xsd" version="1.1" creator="VisuGPX - https://www.visugpx.com">
  <metadata>
    <name>Coulanges la Borde 13k</name>
    <desc><![CDATA[Coulanges sur Yonne, ls borde
12km
Depart Coulanges ]]></desc>
  </metadata>
  <trk>
    <name><![CDATA[Coulanges la Borde 13k]]></name>
    <extensions>
      <line xmlns="http://www.topografix.com/GPX/gpx_style/0/2">
        <color>0000FF</color>
        <width>4</width>
      </line>
    </extensions>
    <trkseg>
      <trkpt lat="47.52609" lon="3.53871">
        <ele>150</ele>
        <time>2021-05-04T16:53:20+02:00</time>
      </trkpt>
      <trkpt lat="47.52646" lon="3.53957">
        <ele>148</ele>
        <time>2021-05-04T16:53:25+02:00</time>
      </trkpt>
      <trkpt lat="47.52581" lon="3.53758">
        <ele>151</ele>
        <time>2021-05-04T16:53:30+02:00</time>
      </trkpt>
      <trkpt lat="47.52533" lon="3.53666">
        <ele>149</ele>
        <time>2021-05-04T16:53:35+02:00</time>
      </trkpt>
      <trkpt lat="47.52502" lon="3.53612">
        <ele>145</ele>
        <time>2021-05-04T16:53:40+02:00</time>
      </trkpt>
      <trkpt lat="47.52493" lon="3.53534">
        <ele>144</ele>
        <time>2021-05-04T16:53:45+02:00</time>
      </trkpt>
      <trkpt lat="47.52491" lon="3.53464">
        <ele>142</ele>
        <time>2021-05-04T16:53:50+02:00</time>
      </trkpt>
      <trkpt lat="47.52506" lon="3.53453">
        <ele>143</ele>
        <time>2021-05-04T16:53:55+02:00</time>
      </trkpt>
      <trkpt lat="47.52504" lon="3.53391">
        <ele>140</ele>
        <time>2021-05-04T16:54:00+02:00</time>
      </trkpt>
      <trkpt lat="47.52525" lon="3.53365">
        <ele>142</ele>
        <time>2021-05-04T16:54:05+02:00</time>
      </trkpt>
      <trkpt lat="47.52561" lon="3.53255">
        <ele>141</ele>
        <time>2021-05-04T16:54:10+02:00</time>
      </trkpt>
      <trkpt lat="47.52578" lon="3.53169">
        <ele>143</ele>
        <time>2021-05-04T16:54:15+02:00</time>
      </trkpt>
      <trkpt lat="47.52604" lon="3.53082">
        <ele>144</ele>
        <time>2021-05-04T16:54:20+02:00</time>
      </trkpt>
      <trkpt lat="47.5263" lon="3.52992">
        <ele>148</ele>
        <time>2021-05-04T16:54:25+02:00</time>
      </trkpt>
      <trkpt lat="47.52645" lon="3.52957">
        <ele>149</ele>
        <time>2021-05-04T16:54:30+02:00</time>
      </trkpt>
      <trkpt lat="47.52687" lon="3.52903">
        <ele>154</ele>
        <time>2021-05-04T16:54:35+02:00</time>
      </trkpt>
      <trkpt lat="47.5275" lon="3.52821">
        <ele>161</ele>
        <time>2021-05-04T16:54:40+02:00</time>
      </trkpt>
      <trkpt lat="47.52809" lon="3.52758">
        <ele>171</ele>
        <time>2021-05-04T16:54:45+02:00</time>
      </trkpt>
      <trkpt lat="47.52828" lon="3.52634">
        <ele>177</ele>
        <time>2021-05-04T16:54:50+02:00</time>
      </trkpt>
      <trkpt lat="47.52873" lon="3.52522">
        <ele>183</ele>
        <time>2021-05-04T16:54:55+02:00</time>
      </trkpt>
      <trkpt lat="47.52955" lon="3.52428">
        <ele>189</ele>
        <time>2021-05-04T16:55:00+02:00</time>
      </trkpt>
      <trkpt lat="47.53" lon="3.52407">
        <ele>190</ele>
        <time>2021-05-04T16:55:05+02:00</time>
      </trkpt>
      <trkpt lat="47.53096" lon="3.5234">
        <ele>191</ele>
        <time>2021-05-04T16:55:10+02:00</time>
      </trkpt>
      <trkpt lat="47.53154" lon="3.52208">
        <ele>191</ele>
        <time>2021-05-04T16:55:15+02:00</time>
      </trkpt>
      <trkpt lat="47.53195" lon="3.52109">
        <ele>188</ele>
        <time>2021-05-04T16:55:20+02:00</time>
      </trkpt>
      <trkpt lat="47.53081" lon="3.51948">
        <ele>181</ele>
        <time>2021-05-04T16:55:25+02:00</time>
      </trkpt>
      <trkpt lat="47.53017" lon="3.51826">
        <ele>178</ele>
        <time>2021-05-04T16:55:30+02:00</time>
      </trkpt>
      <trkpt lat="47.52942" lon="3.51687">
        <ele>173</ele>
        <time>2021-05-04T16:55:35+02:00</time>
      </trkpt>
      <trkpt lat="47.52883" lon="3.51579">
        <ele>172</ele>
        <time>2021-05-04T16:55:40+02:00</time>
      </trkpt>
      <trkpt lat="47.52856" lon="3.51548">
        <ele>172</ele>
        <time>2021-05-04T16:55:45+02:00</time>
      </trkpt>
      <trkpt lat="47.52837" lon="3.51476">
        <ele>169</ele>
        <time>2021-05-04T16:55:50+02:00</time>
      </trkpt>
      <trkpt lat="47.52744" lon="3.51378">
        <ele>156</ele>
        <time>2021-05-04T16:55:55+02:00</time>
      </trkpt>
      <trkpt lat="47.5273" lon="3.51307">
        <ele>153</ele>
        <time>2021-05-04T16:56:00+02:00</time>
      </trkpt>
      <trkpt lat="47.5262" lon="3.51258">
        <ele>150</ele>
        <time>2021-05-04T16:56:05+02:00</time>
      </trkpt>
      <trkpt lat="47.52652" lon="3.50943">
        <ele>166</ele>
        <time>2021-05-04T16:56:10+02:00</time>
      </trkpt>
      <trkpt lat="47.52724" lon="3.50774">
        <ele>169</ele>
        <time>2021-05-04T16:56:15+02:00</time>
      </trkpt>
      <trkpt lat="47.52759" lon="3.50623">
        <ele>173</ele>
        <time>2021-05-04T16:56:20+02:00</time>
      </trkpt>
      <trkpt lat="47.5282" lon="3.50499">
        <ele>176</ele>
        <time>2021-05-04T16:56:25+02:00</time>
      </trkpt>
      <trkpt lat="47.52979" lon="3.50527">
        <ele>174</ele>
        <time>2021-05-04T16:56:30+02:00</time>
      </trkpt>
      <trkpt lat="47.53028" lon="3.50565">
        <ele>172</ele>
        <time>2021-05-04T16:56:35+02:00</time>
      </trkpt>
      <trkpt lat="47.53132" lon="3.50573">
        <ele>169</ele>
        <time>2021-05-04T16:56:40+02:00</time>
      </trkpt>
      <trkpt lat="47.53229" lon="3.50586">
        <ele>170</ele>
        <time>2021-05-04T16:56:45+02:00</time>
      </trkpt>
      <trkpt lat="47.53348" lon="3.50618">
        <ele>167</ele>
        <time>2021-05-04T16:56:50+02:00</time>
      </trkpt>
      <trkpt lat="47.53411" lon="3.50607">
        <ele>162</ele>
        <time>2021-05-04T16:56:55+02:00</time>
      </trkpt>
      <trkpt lat="47.53435" lon="3.50578">
        <ele>162</ele>
        <time>2021-05-04T16:57:00+02:00</time>
      </trkpt>
      <trkpt lat="47.53471" lon="3.50562">
        <ele>162</ele>
        <time>2021-05-04T16:57:05+02:00</time>
      </trkpt>
      <trkpt lat="47.535" lon="3.5059">
        <ele>159</ele>
        <time>2021-05-04T16:57:10+02:00</time>
      </trkpt>
      <trkpt lat="47.53533" lon="3.50559">
        <ele>162</ele>
        <time>2021-05-04T16:57:15+02:00</time>
      </trkpt>
      <trkpt lat="47.53539" lon="3.50528">
        <ele>163</ele>
        <time>2021-05-04T16:57:20+02:00</time>
      </trkpt>
      <trkpt lat="47.53549" lon="3.505">
        <ele>164</ele>
        <time>2021-05-04T16:57:25+02:00</time>
      </trkpt>
      <trkpt lat="47.53495" lon="3.50393">
        <ele>169</ele>
        <time>2021-05-04T16:57:30+02:00</time>
      </trkpt>
      <trkpt lat="47.53496" lon="3.50321">
        <ele>172</ele>
        <time>2021-05-04T16:57:35+02:00</time>
      </trkpt>
      <trkpt lat="47.5352" lon="3.50252">
        <ele>175</ele>
        <time>2021-05-04T16:57:40+02:00</time>
      </trkpt>
      <trkpt lat="47.53551" lon="3.50174">
        <ele>179</ele>
        <time>2021-05-04T16:57:45+02:00</time>
      </trkpt>
      <trkpt lat="47.53546" lon="3.50053">
        <ele>178</ele>
        <time>2021-05-04T16:57:50+02:00</time>
      </trkpt>
      <trkpt lat="47.53876" lon="3.50143">
        <ele>182</ele>
        <time>2021-05-04T16:57:55+02:00</time>
      </trkpt>
      <trkpt lat="47.53933" lon="3.50171">
        <ele>175</ele>
        <time>2021-05-04T16:58:00+02:00</time>
      </trkpt>
      <trkpt lat="47.53929" lon="3.50223">
        <ele>176</ele>
        <time>2021-05-04T16:58:05+02:00</time>
      </trkpt>
      <trkpt lat="47.53935" lon="3.50265">
        <ele>176</ele>
        <time>2021-05-04T16:58:10+02:00</time>
      </trkpt>
      <trkpt lat="47.5394" lon="3.50281">
        <ele>177</ele>
        <time>2021-05-04T16:58:15+02:00</time>
      </trkpt>
      <trkpt lat="47.53953" lon="3.50233">
        <ele>175</ele>
        <time>2021-05-04T16:58:20+02:00</time>
      </trkpt>
      <trkpt lat="47.53973" lon="3.50209">
        <ele>174</ele>
        <time>2021-05-04T16:58:25+02:00</time>
      </trkpt>
      <trkpt lat="47.53994" lon="3.50199">
        <ele>172</ele>
        <time>2021-05-04T16:58:30+02:00</time>
      </trkpt>
      <trkpt lat="47.54072" lon="3.50205">
        <ele>173</ele>
        <time>2021-05-04T16:58:35+02:00</time>
      </trkpt>
      <trkpt lat="47.54119" lon="3.50236">
        <ele>174</ele>
        <time>2021-05-04T16:58:40+02:00</time>
      </trkpt>
      <trkpt lat="47.54167" lon="3.5023">
        <ele>174</ele>
        <time>2021-05-04T16:58:45+02:00</time>
      </trkpt>
      <trkpt lat="47.5421" lon="3.50108">
        <ele>185</ele>
        <time>2021-05-04T16:58:50+02:00</time>
      </trkpt>
      <trkpt lat="47.54241" lon="3.50063">
        <ele>188</ele>
        <time>2021-05-04T16:58:55+02:00</time>
      </trkpt>
      <trkpt lat="47.54281" lon="3.50028">
        <ele>191</ele>
        <time>2021-05-04T16:59:00+02:00</time>
      </trkpt>
      <trkpt lat="47.54403" lon="3.49974">
        <ele>193</ele>
        <time>2021-05-04T16:59:05+02:00</time>
      </trkpt>
      <trkpt lat="47.54444" lon="3.49923">
        <ele>195</ele>
        <time>2021-05-04T16:59:10+02:00</time>
      </trkpt>
      <trkpt lat="47.54456" lon="3.49879">
        <ele>197</ele>
        <time>2021-05-04T16:59:15+02:00</time>
      </trkpt>
      <trkpt lat="47.54496" lon="3.49729">
        <ele>200</ele>
        <time>2021-05-04T16:59:20+02:00</time>
      </trkpt>
      <trkpt lat="47.54551" lon="3.49571">
        <ele>207</ele>
        <time>2021-05-04T16:59:25+02:00</time>
      </trkpt>
      <trkpt lat="47.54843" lon="3.49785">
        <ele>192</ele>
        <time>2021-05-04T16:59:30+02:00</time>
      </trkpt>
      <trkpt lat="47.54832" lon="3.499">
        <ele>191</ele>
        <time>2021-05-04T16:59:35+02:00</time>
      </trkpt>
      <trkpt lat="47.54808" lon="3.50023">
        <ele>193</ele>
        <time>2021-05-04T16:59:40+02:00</time>
      </trkpt>
      <trkpt lat="47.54793" lon="3.50108">
        <ele>192</ele>
        <time>2021-05-04T16:59:45+02:00</time>
      </trkpt>
      <trkpt lat="47.54789" lon="3.50294">
        <ele>188</ele>
        <time>2021-05-04T16:59:50+02:00</time>
      </trkpt>
      <trkpt lat="47.54788" lon="3.50348">
        <ele>188</ele>
        <time>2021-05-04T16:59:55+02:00</time>
      </trkpt>
      <trkpt lat="47.54756" lon="3.50373">
        <ele>186</ele>
        <time>2021-05-04T17:00:00+02:00</time>
      </trkpt>
      <trkpt lat="47.54734" lon="3.50347">
        <ele>184</ele>
        <time>2021-05-04T17:00:05+02:00</time>
      </trkpt>
      <trkpt lat="47.54712" lon="3.50279">
        <ele>183</ele>
        <time>2021-05-04T17:00:10+02:00</time>
      </trkpt>
      <trkpt lat="47.54683" lon="3.50234">
        <ele>183</ele>
        <time>2021-05-04T17:00:15+02:00</time>
      </trkpt>
      <trkpt lat="47.5464" lon="3.50218">
        <ele>183</ele>
        <time>2021-05-04T17:00:20+02:00</time>
      </trkpt>
      <trkpt lat="47.54607" lon="3.50203">
        <ele>184</ele>
        <time>2021-05-04T17:00:25+02:00</time>
      </trkpt>
      <trkpt lat="47.54577" lon="3.50218">
        <ele>183</ele>
        <time>2021-05-04T17:00:30+02:00</time>
      </trkpt>
      <trkpt lat="47.5462" lon="3.50335">
        <ele>184</ele>
        <time>2021-05-04T17:00:35+02:00</time>
      </trkpt>
      <trkpt lat="47.54667" lon="3.50437">
        <ele>193</ele>
        <time>2021-05-04T17:00:40+02:00</time>
      </trkpt>
      <trkpt lat="47.54698" lon="3.50511">
        <ele>195</ele>
        <time>2021-05-04T17:00:45+02:00</time>
      </trkpt>
      <trkpt lat="47.54703" lon="3.50577">
        <ele>194</ele>
        <time>2021-05-04T17:00:50+02:00</time>
      </trkpt>
      <trkpt lat="47.54725" lon="3.50763">
        <ele>187</ele>
        <time>2021-05-04T17:00:55+02:00</time>
      </trkpt>
      <trkpt lat="47.5474" lon="3.50912">
        <ele>183</ele>
        <time>2021-05-04T17:01:00+02:00</time>
      </trkpt>
      <trkpt lat="47.54727" lon="3.50927">
        <ele>184</ele>
        <time>2021-05-04T17:01:05+02:00</time>
      </trkpt>
      <trkpt lat="47.54691" lon="3.50932">
        <ele>186</ele>
        <time>2021-05-04T17:01:10+02:00</time>
      </trkpt>
      <trkpt lat="47.54656" lon="3.50915">
        <ele>186</ele>
        <time>2021-05-04T17:01:15+02:00</time>
      </trkpt>
      <trkpt lat="47.54608" lon="3.50905">
        <ele>188</ele>
        <time>2021-05-04T17:01:20+02:00</time>
      </trkpt>
      <trkpt lat="47.54567" lon="3.50997">
        <ele>195</ele>
        <time>2021-05-04T17:01:25+02:00</time>
      </trkpt>
      <trkpt lat="47.54546" lon="3.5107">
        <ele>199</ele>
        <time>2021-05-04T17:01:30+02:00</time>
      </trkpt>
      <trkpt lat="47.54483" lon="3.51151">
        <ele>204</ele>
        <time>2021-05-04T17:01:35+02:00</time>
      </trkpt>
      <trkpt lat="47.54402" lon="3.51181">
        <ele>203</ele>
        <time>2021-05-04T17:01:40+02:00</time>
      </trkpt>
      <trkpt lat="47.54336" lon="3.51228">
        <ele>204</ele>
        <time>2021-05-04T17:01:45+02:00</time>
      </trkpt>
      <trkpt lat="47.5431" lon="3.5123">
        <ele>204</ele>
        <time>2021-05-04T17:01:50+02:00</time>
      </trkpt>
      <trkpt lat="47.54317" lon="3.51257">
        <ele>204</ele>
        <time>2021-05-04T17:01:55+02:00</time>
      </trkpt>
      <trkpt lat="47.54334" lon="3.51294">
        <ele>205</ele>
        <time>2021-05-04T17:02:00+02:00</time>
      </trkpt>
      <trkpt lat="47.5434" lon="3.5131">
        <ele>206</ele>
        <time>2021-05-04T17:02:05+02:00</time>
      </trkpt>
      <trkpt lat="47.5434" lon="3.51325">
        <ele>206</ele>
        <time>2021-05-04T17:02:10+02:00</time>
      </trkpt>
      <trkpt lat="47.54344" lon="3.51337">
        <ele>206</ele>
        <time>2021-05-04T17:02:15+02:00</time>
      </trkpt>
      <trkpt lat="47.54354" lon="3.51371">
        <ele>207</ele>
        <time>2021-05-04T17:02:20+02:00</time>
      </trkpt>
      <trkpt lat="47.54354" lon="3.51397">
        <ele>208</ele>
        <time>2021-05-04T17:02:25+02:00</time>
      </trkpt>
      <trkpt lat="47.54367" lon="3.5144">
        <ele>207</ele>
        <time>2021-05-04T17:02:30+02:00</time>
      </trkpt>
      <trkpt lat="47.54445" lon="3.51677">
        <ele>206</ele>
        <time>2021-05-04T17:02:35+02:00</time>
      </trkpt>
      <trkpt lat="47.54533" lon="3.51914">
        <ele>204</ele>
        <time>2021-05-04T17:02:40+02:00</time>
      </trkpt>
      <trkpt lat="47.54656" lon="3.52264">
        <ele>197</ele>
        <time>2021-05-04T17:02:45+02:00</time>
      </trkpt>
      <trkpt lat="47.54393" lon="3.52367">
        <ele>194</ele>
        <time>2021-05-04T17:02:50+02:00</time>
      </trkpt>
      <trkpt lat="47.54258" lon="3.52428">
        <ele>194</ele>
        <time>2021-05-04T17:02:55+02:00</time>
      </trkpt>
      <trkpt lat="47.54125" lon="3.52547">
        <ele>186</ele>
        <time>2021-05-04T17:03:00+02:00</time>
      </trkpt>
      <trkpt lat="47.54029" lon="3.52636">
        <ele>185</ele>
        <time>2021-05-04T17:03:05+02:00</time>
      </trkpt>
      <trkpt lat="47.53906" lon="3.52823">
        <ele>184</ele>
        <time>2021-05-04T17:03:10+02:00</time>
      </trkpt>
      <trkpt lat="47.53782" lon="3.52991">
        <ele>183</ele>
        <time>2021-05-04T17:03:15+02:00</time>
      </trkpt>
      <trkpt lat="47.53718" lon="3.53078">
        <ele>185</ele>
        <time>2021-05-04T17:03:20+02:00</time>
      </trkpt>
      <trkpt lat="47.53588" lon="3.53144">
        <ele>188</ele>
        <time>2021-05-04T17:03:25+02:00</time>
      </trkpt>
      <trkpt lat="47.53502" lon="3.53227">
        <ele>186</ele>
        <time>2021-05-04T17:03:30+02:00</time>
      </trkpt>
      <trkpt lat="47.53473" lon="3.53311">
        <ele>182</ele>
        <time>2021-05-04T17:03:35+02:00</time>
      </trkpt>
      <trkpt lat="47.53402" lon="3.5333">
        <ele>180</ele>
        <time>2021-05-04T17:03:40+02:00</time>
      </trkpt>
      <trkpt lat="47.53204" lon="3.53307">
        <ele>175</ele>
        <time>2021-05-04T17:03:45+02:00</time>
      </trkpt>
      <trkpt lat="47.53143" lon="3.53493">
        <ele>170</ele>
        <time>2021-05-04T17:03:50+02:00</time>
      </trkpt>
      <trkpt lat="47.53026" lon="3.53741">
        <ele>165</ele>
        <time>2021-05-04T17:03:55+02:00</time>
      </trkpt>
      <trkpt lat="47.52954" lon="3.53889">
        <ele>162</ele>
        <time>2021-05-04T17:04:00+02:00</time>
      </trkpt>
      <trkpt lat="47.5291" lon="3.5398">
        <ele>161</ele>
        <time>2021-05-04T17:04:05+02:00</time>
      </trkpt>
      <trkpt lat="47.52892" lon="3.53939">
        <ele>162</ele>
        <time>2021-05-04T17:04:10+02:00</time>
      </trkpt>
      <trkpt lat="47.52871" lon="3.53893">
        <ele>164</ele>
        <time>2021-05-04T17:04:15+02:00</time>
      </trkpt>
      <trkpt lat="47.52848" lon="3.53829">
        <ele>167</ele>
        <time>2021-05-04T17:04:20+02:00</time>
      </trkpt>
      <trkpt lat="47.52836" lon="3.53779">
        <ele>170</ele>
        <time>2021-05-04T17:04:25+02:00</time>
      </trkpt>
      <trkpt lat="47.52808" lon="3.53802">
        <ele>167</ele>
        <time>2021-05-04T17:04:30+02:00</time>
      </trkpt>
      <trkpt lat="47.52799" lon="3.53828">
        <ele>165</ele>
        <time>2021-05-04T17:04:35+02:00</time>
      </trkpt>
      <trkpt lat="47.52791" lon="3.5385">
        <ele>163</ele>
        <time>2021-05-04T17:04:40+02:00</time>
      </trkpt>
      <trkpt lat="47.52763" lon="3.53843">
        <ele>162</ele>
        <time>2021-05-04T17:04:45+02:00</time>
      </trkpt>
      <trkpt lat="47.5275" lon="3.53853">
        <ele>161</ele>
        <time>2021-05-04T17:04:50+02:00</time>
      </trkpt>
      <trkpt lat="47.52738" lon="3.53872">
        <ele>158</ele>
        <time>2021-05-04T17:04:55+02:00</time>
      </trkpt>
      <trkpt lat="47.52749" lon="3.53892">
        <ele>158</ele>
        <time>2021-05-04T17:05:00+02:00</time>
      </trkpt>
      <trkpt lat="47.52731" lon="3.53927">
        <ele>154</ele>
        <time>2021-05-04T17:05:05+02:00</time>
      </trkpt>
      <trkpt lat="47.52738" lon="3.53979">
        <ele>152</ele>
        <time>2021-05-04T17:05:10+02:00</time>
      </trkpt>
      <trkpt lat="47.52708" lon="3.53991">
        <ele>150</ele>
        <time>2021-05-04T17:05:15+02:00</time>
      </trkpt>
      <trkpt lat="47.52685" lon="3.54004">
        <ele>149</ele>
        <time>2021-05-04T17:05:20+02:00</time>
      </trkpt>
      <trkpt lat="47.52666" lon="3.53971">
        <ele>148</ele>
        <time>2021-05-04T17:05:25+02:00</time>
      </trkpt>
      <trkpt lat="47.52643" lon="3.53958">
        <ele>148</ele>
        <time>2021-05-04T17:05:30+02:00</time>
      </trkpt>
    </trkseg>
  </trk>
</gpx>